createdAt,value
2023-06-30T00:01:40.866Z,5.53
2023-06-30T00:04:13.815Z,5.40
2023-06-30T00:06:43.927Z,5.57
2023-06-30T00:09:12.488Z,5.70
2023-06-30T00:11:41.793Z,5.57
2023-06-30T00:14:10.302Z,5.70
2023-06-30T00:16:38.934Z,5.37
2023-06-30T00:19:07.389Z,5.40
2023-06-30T00:21:36.043Z,5.77
2023-06-30T00:24:06.280Z,5.20
2023-06-30T00:26:34.797Z,5.53
2023-06-30T00:29:03.619Z,5.70
2023-06-30T00:31:32.226Z,5.17
2023-06-30T00:34:00.865Z,5.37
2023-06-30T00:36:30.264Z,5.57
2023-06-30T00:38:59.386Z,5.87
2023-06-30T00:41:29.575Z,6.10
2023-06-30T00:43:59.347Z,5.90
2023-06-30T00:46:28.290Z,5.73
2023-06-30T00:48:56.871Z,5.40
2023-06-30T00:51:25.553Z,5.67
2023-06-30T00:53:54.304Z,6.37
2023-06-30T00:56:22.858Z,6.13
2023-06-30T00:58:53.411Z,6.57
2023-06-30T01:01:25.252Z,6.17
2023-06-30T01:03:55.664Z,6.33
2023-06-30T01:06:27.489Z,6.10
2023-06-30T01:08:58.401Z,6.50
2023-06-30T01:11:27.566Z,7.27
2023-06-30T01:13:58.719Z,6.80
2023-06-30T01:16:28.288Z,7.23
2023-06-30T01:18:59.817Z,7.03
2023-06-30T01:21:30.053Z,6.60
2023-06-30T01:24:00.149Z,6.57
2023-06-30T01:26:28.917Z,6.57
2023-06-30T01:28:59.400Z,7.00
2023-06-30T01:31:28.525Z,6.97
2023-06-30T01:33:57.177Z,7.07
2023-06-30T01:36:25.725Z,7.07
2023-06-30T01:38:54.240Z,7.67
2023-06-30T01:41:23.432Z,6.67
2023-06-30T01:43:52.944Z,6.97
2023-06-30T01:46:23.032Z,6.83
2023-06-30T01:48:52.025Z,7.17
2023-06-30T01:51:21.019Z,7.47
2023-06-30T01:53:49.531Z,6.97
2023-06-30T01:56:18.053Z,6.90
2023-06-30T01:58:46.884Z,7.13
2023-06-30T02:01:15.444Z,7.50
2023-06-30T02:03:45.384Z,6.57
2023-06-30T02:06:14.052Z,7.73
2023-06-30T02:08:42.590Z,7.50
2023-06-30T02:11:11.124Z,7.53
2023-06-30T02:13:39.755Z,7.20
2023-06-30T02:16:08.331Z,7.10
2023-06-30T02:18:40.720Z,7.27
2023-06-30T02:21:10.726Z,7.40
2023-06-30T02:23:39.235Z,7.37
2023-06-30T02:26:07.722Z,6.93
2023-06-30T02:28:36.320Z,7.97
2023-06-30T02:31:04.848Z,7.53
2023-06-30T02:33:33.380Z,8.10
2023-06-30T02:36:04.124Z,7.77
2023-06-30T02:38:34.035Z,7.83
2023-06-30T02:41:02.745Z,7.33
2023-06-30T02:43:31.255Z,7.23
2023-06-30T02:45:59.934Z,7.80
2023-06-30T02:48:28.569Z,8.10
2023-06-30T02:50:57.111Z,8.03
2023-06-30T02:53:25.618Z,7.17
2023-06-30T02:55:55.616Z,7.83
2023-06-30T02:58:24.457Z,7.50
2023-06-30T03:00:53.256Z,7.30
2023-06-30T03:03:22.849Z,7.23
2023-06-30T03:05:51.416Z,7.57
2023-06-30T03:08:20.088Z,7.30
2023-06-30T03:10:50.090Z,7.40
2023-06-30T03:13:20.112Z,8.30
2023-06-30T03:15:48.657Z,7.20
2023-06-30T03:18:17.263Z,7.83
2023-06-30T03:20:45.880Z,7.50
2023-06-30T03:23:15.491Z,7.53
2023-06-30T03:25:44.399Z,7.17
2023-06-30T03:28:13.170Z,7.43
2023-06-30T03:30:43.136Z,7.70
2023-06-30T03:33:12.163Z,7.63
2023-06-30T03:35:40.663Z,7.40
2023-06-30T03:38:09.216Z,7.70
2023-06-30T03:40:37.866Z,7.30
2023-06-30T03:43:06.496Z,8.23
2023-06-30T03:45:34.987Z,7.60
2023-06-30T03:48:05.066Z,7.10
2023-06-30T03:50:33.604Z,7.50
2023-06-30T03:53:02.113Z,7.03
2023-06-30T03:55:30.774Z,7.33
2023-06-30T03:57:59.464Z,6.80
2023-06-30T04:00:29.208Z,6.93
2023-06-30T04:02:58.043Z,6.77
2023-06-30T04:05:27.979Z,6.87
2023-06-30T04:07:57.000Z,6.53
2023-06-30T04:10:25.720Z,6.37
2023-06-30T04:12:54.429Z,6.73
2023-06-30T04:15:23.016Z,6.40
2023-06-30T04:17:51.664Z,6.37
2023-06-30T04:20:20.335Z,6.50
2023-06-30T04:22:50.321Z,6.33
2023-06-30T04:25:18.972Z,6.87
2023-06-30T04:27:47.471Z,6.60
2023-06-30T04:30:16.497Z,6.13
2023-06-30T04:32:45.213Z,6.13
2023-06-30T04:35:13.983Z,6.93
2023-06-30T04:37:42.533Z,6.07
2023-06-30T04:40:13.943Z,6.50
2023-06-30T04:42:42.507Z,6.03
2023-06-30T04:45:11.422Z,6.53
2023-06-30T04:47:40.108Z,6.60
2023-06-30T04:50:09.148Z,6.47
2023-06-30T04:52:37.669Z,6.50
2023-06-30T04:55:06.550Z,5.77
2023-06-30T04:57:36.534Z,6.53
2023-06-30T05:00:05.327Z,6.00
2023-06-30T05:02:34.113Z,6.73
2023-06-30T05:05:02.808Z,5.80
2023-06-30T05:07:31.353Z,5.33
2023-06-30T05:10:00.074Z,5.47
2023-06-30T05:12:28.573Z,4.93
2023-06-30T05:14:58.523Z,5.20
2023-06-30T05:17:27.378Z,4.90
2023-06-30T05:19:56.049Z,5.00
2023-06-30T05:22:24.570Z,4.50
2023-06-30T05:24:53.288Z,4.47
2023-06-30T05:27:21.786Z,5.10
2023-06-30T05:29:50.281Z,4.60
2023-06-30T05:32:20.539Z,4.70
2023-06-30T05:34:49.089Z,4.93
2023-06-30T05:37:17.587Z,4.60
2023-06-30T05:39:46.289Z,3.97
2023-06-30T05:42:14.804Z,4.50
2023-06-30T05:44:43.315Z,4.70
2023-06-30T05:47:11.971Z,3.57
2023-06-30T05:49:41.856Z,3.30
2023-06-30T05:52:10.460Z,3.07
2023-06-30T05:54:39.065Z,2.60
2023-06-30T05:57:08.065Z,2.57
2023-06-30T05:59:36.562Z,2.47
2023-06-30T06:02:05.220Z,2.10
2023-06-30T06:04:34.010Z,2.03
2023-06-30T06:07:06.689Z,2.47
2023-06-30T06:09:35.430Z,2.40
2023-06-30T06:12:04.307Z,2.00
2023-06-30T06:14:32.876Z,2.20
2023-06-30T06:17:01.639Z,1.93
2023-06-30T06:19:30.281Z,1.60
2023-06-30T06:21:58.909Z,2.30
2023-06-30T06:24:28.777Z,1.70
2023-06-30T06:26:57.259Z,1.60
2023-06-30T06:29:25.905Z,1.40
2023-06-30T06:31:55.139Z,1.50
2023-06-30T06:34:24.231Z,1.63
2023-06-30T06:36:52.915Z,1.30
2023-06-30T06:39:22.226Z,1.37
2023-06-30T06:41:52.247Z,1.37
2023-06-30T06:44:20.771Z,1.40
2023-06-30T06:46:49.471Z,1.53
2023-06-30T06:49:18.046Z,1.50
2023-06-30T06:51:46.559Z,1.30
2023-06-30T06:54:15.264Z,1.20
2023-06-30T06:56:43.798Z,1.33
2023-06-30T06:59:13.702Z,1.23
2023-06-30T07:01:42.324Z,1.47
2023-06-30T07:04:10.896Z,1.50
2023-06-30T07:06:39.433Z,1.30
2023-06-30T07:09:08.167Z,1.30
2023-06-30T07:11:36.796Z,1.33
2023-06-30T07:14:05.394Z,1.40
2023-06-30T07:16:35.494Z,1.40
2023-06-30T07:19:04.415Z,1.20
2023-06-30T07:21:33.427Z,1.20
2023-06-30T07:24:02.043Z,1.10
2023-06-30T07:26:32.565Z,1.43
2023-06-30T07:29:01.068Z,1.50
2023-06-30T07:31:32.864Z,1.10
2023-06-30T07:34:02.829Z,1.40
2023-06-30T07:36:31.412Z,1.40
2023-06-30T07:38:59.906Z,1.30
2023-06-30T07:41:35.953Z,1.20
2023-06-30T07:44:05.149Z,1.13
2023-06-30T07:46:35.267Z,1.57
2023-06-30T07:49:05.279Z,1.60
2023-06-30T07:51:33.924Z,1.33
2023-06-30T07:54:02.453Z,1.30
2023-06-30T07:56:30.966Z,1.40
2023-06-30T07:58:59.559Z,1.30
2023-06-30T08:01:28.157Z,1.50
2023-06-30T08:03:56.823Z,1.43
2023-06-30T08:06:27.960Z,1.57
2023-06-30T08:08:56.689Z,1.50
2023-06-30T08:11:26.934Z,1.70
2023-06-30T08:13:57.032Z,1.47
2023-06-30T08:16:25.653Z,1.23
2023-06-30T08:18:54.655Z,1.40
2023-06-30T08:21:23.516Z,1.80
2023-06-30T08:23:53.568Z,1.60
2023-06-30T08:26:22.074Z,1.47
2023-06-30T08:28:51.364Z,1.60
2023-06-30T08:31:20.071Z,1.47
2023-06-30T08:33:48.663Z,1.17
2023-06-30T08:36:17.332Z,1.20
2023-06-30T08:38:45.815Z,1.50
2023-06-30T08:41:16.566Z,1.70
2023-06-30T08:43:46.241Z,1.27
2023-06-30T08:46:15.020Z,1.03
2023-06-30T08:48:43.648Z,1.47
2023-06-30T08:51:13.712Z,1.20
2023-06-30T08:53:43.095Z,1.60
2023-06-30T08:56:12.159Z,1.23
2023-06-30T08:58:42.074Z,1.70
2023-06-30T09:01:11.122Z,1.50
2023-06-30T09:03:40.688Z,1.00
2023-06-30T09:06:10.520Z,1.37
2023-06-30T09:08:42.739Z,1.40
2023-06-30T09:11:11.722Z,1.40
2023-06-30T09:13:42.040Z,1.63
2023-06-30T09:16:18.665Z,1.23
2023-06-30T09:18:48.287Z,1.27
2023-06-30T09:21:17.019Z,1.07
2023-06-30T09:23:45.751Z,1.43
2023-06-30T09:26:15.597Z,1.13
2023-06-30T09:28:45.724Z,1.30
2023-06-30T09:31:15.012Z,1.30
2023-06-30T09:33:44.595Z,1.30
2023-06-30T09:36:18.918Z,1.10
2023-06-30T09:38:47.644Z,1.10
2023-06-30T09:41:21.759Z,1.23
2023-06-30T09:43:59.424Z,1.10
2023-06-30T09:46:29.638Z,1.13
2023-06-30T09:48:58.270Z,1.33
2023-06-30T09:51:26.784Z,1.47
2023-06-30T09:53:55.448Z,1.30
2023-06-30T09:56:24.962Z,1.57
2023-06-30T09:58:58.159Z,1.50
2023-06-30T10:01:27.036Z,1.43
2023-06-30T10:03:57.198Z,1.90
2023-06-30T10:06:26.640Z,1.17
2023-06-30T10:08:55.652Z,1.20
2023-06-30T10:11:25.410Z,1.13
2023-06-30T10:13:57.769Z,1.23
2023-06-30T10:16:26.770Z,1.60
2023-06-30T10:18:56.359Z,1.27
2023-06-30T10:21:24.922Z,1.40
2023-06-30T10:23:53.987Z,1.17
2023-06-30T10:26:22.864Z,1.00
2023-06-30T10:28:51.489Z,1.10
2023-06-30T10:31:21.709Z,1.13
2023-06-30T10:33:50.469Z,1.17
2023-06-30T10:36:19.539Z,1.27
2023-06-30T10:38:48.708Z,1.10
2023-06-30T10:41:19.497Z,1.05
2023-06-30T10:44:06.789Z,1.50
2023-06-30T10:46:52.848Z,1.20
2023-06-30T10:49:28.797Z,1.27
2023-06-30T10:52:01.637Z,1.00
2023-06-30T10:54:31.811Z,1.20
2023-06-30T10:57:07.896Z,1.10
2023-06-30T10:59:40.434Z,1.30
2023-06-30T11:02:13.774Z,1.37
2023-06-30T11:04:42.922Z,1.30
2023-06-30T11:07:12.365Z,1.10
2023-06-30T11:09:59.093Z,1.25
2023-06-30T11:12:28.767Z,1.40
2023-06-30T11:14:58.296Z,1.20
2023-06-30T11:17:28.785Z,1.10
2023-06-30T11:20:13.356Z,1.40
2023-06-30T11:22:42.240Z,1.05
2023-06-30T11:25:12.360Z,1.48
2023-06-30T11:27:41.609Z,1.50
2023-06-30T11:30:10.612Z,1.40
2023-06-30T11:32:40.535Z,1.20
2023-06-30T11:35:10.859Z,1.20
2023-06-30T11:37:39.695Z,1.48
2023-06-30T11:40:08.938Z,1.10
2023-06-30T11:42:41.753Z,1.60
2023-06-30T11:45:10.583Z,1.23
2023-06-30T11:47:42.346Z,1.20
2023-06-30T11:50:11.601Z,1.30
2023-06-30T11:52:41.246Z,1.30
2023-06-30T11:55:09.948Z,1.17
2023-06-30T11:57:39.019Z,1.48
2023-06-30T12:00:11.768Z,1.33
2023-06-30T12:02:48.575Z,1.30
2023-06-30T12:05:22.489Z,1.17
2023-06-30T12:07:52.817Z,1.30
2023-06-30T12:10:23.216Z,1.17
2023-06-30T12:12:58.506Z,1.20
2023-06-30T12:15:27.507Z,1.00
2023-06-30T12:17:57.434Z,1.03
2023-06-30T12:20:34.353Z,1.30
2023-06-30T12:23:03.000Z,1.10
2023-06-30T12:25:32.829Z,1.17
2023-06-30T12:28:01.351Z,1.30
2023-06-30T12:30:30.533Z,1.10
2023-06-30T12:33:01.249Z,1.10
2023-06-30T12:35:30.948Z,1.10
2023-06-30T12:38:00.369Z,1.17
2023-06-30T12:40:30.330Z,1.00
2023-06-30T12:42:59.820Z,1.10
2023-06-30T12:45:28.639Z,0.90
2023-06-30T12:47:57.229Z,1.13
2023-06-30T12:50:27.145Z,1.00
2023-06-30T12:52:55.741Z,1.00
2023-06-30T12:55:24.322Z,1.00
2023-06-30T12:57:52.863Z,0.90
2023-06-30T13:00:21.608Z,0.82
2023-06-30T13:02:50.263Z,0.80
2023-06-30T13:05:18.814Z,0.95
2023-06-30T13:07:48.853Z,0.98
2023-06-30T13:10:17.530Z,0.90
2023-06-30T13:12:46.361Z,1.13
2023-06-30T13:15:15.094Z,0.70
2023-06-30T13:17:44.769Z,1.00
2023-06-30T13:20:13.419Z,0.73
2023-06-30T13:22:50.819Z,0.70
2023-06-30T13:25:26.294Z,0.90
2023-06-30T13:27:54.954Z,0.90
2023-06-30T13:30:23.736Z,0.82
2023-06-30T13:32:53.046Z,0.75
2023-06-30T13:35:22.340Z,0.73
2023-06-30T13:37:51.412Z,0.70
2023-06-30T13:40:20.011Z,0.85
2023-06-30T13:42:50.104Z,1.00
2023-06-30T13:45:18.626Z,1.00
2023-06-30T13:47:48.376Z,0.90
2023-06-30T13:50:17.102Z,0.80
2023-06-30T13:52:45.686Z,0.80
2023-06-30T13:55:14.203Z,0.80
2023-06-30T13:57:42.909Z,0.88
2023-06-30T14:00:13.568Z,0.60
2023-06-30T14:02:42.831Z,0.70
2023-06-30T14:05:11.844Z,0.70
2023-06-30T14:07:40.425Z,0.80
2023-06-30T14:10:09.402Z,1.00
2023-06-30T14:12:38.094Z,0.70
2023-06-30T14:15:06.848Z,0.70
2023-06-30T14:17:36.848Z,1.00
2023-06-30T14:20:05.559Z,0.73
2023-06-30T14:22:34.073Z,0.80
2023-06-30T14:25:02.733Z,0.90
2023-06-30T14:27:31.253Z,0.95
2023-06-30T14:29:59.808Z,0.80
2023-06-30T14:32:28.584Z,0.80
2023-06-30T14:34:59.482Z,1.00
2023-06-30T14:37:27.993Z,0.82
2023-06-30T14:39:56.567Z,1.00
2023-06-30T14:42:32.100Z,1.08
2023-06-30T14:45:01.747Z,0.80
2023-06-30T14:47:30.394Z,0.95
2023-06-30T14:50:00.527Z,0.93
2023-06-30T14:52:29.045Z,0.90
2023-06-30T14:54:57.549Z,0.80
2023-06-30T14:57:26.308Z,1.00
2023-06-30T14:59:54.827Z,0.90
2023-06-30T15:02:23.446Z,0.93
2023-06-30T15:04:52.242Z,0.98
2023-06-30T15:07:22.160Z,0.90
2023-06-30T15:09:50.697Z,0.88
2023-06-30T15:12:19.339Z,0.85
2023-06-30T15:14:49.300Z,0.90
2023-06-30T15:17:18.359Z,0.98
2023-06-30T15:19:48.627Z,1.00
2023-06-30T15:22:19.366Z,1.00
2023-06-30T15:24:49.431Z,1.00
2023-06-30T15:27:18.038Z,1.10
2023-06-30T15:29:46.782Z,0.90
2023-06-30T15:32:15.453Z,0.95
2023-06-30T15:34:44.027Z,1.10
2023-06-30T15:37:12.536Z,0.98
2023-06-30T15:39:41.165Z,1.20
2023-06-30T15:42:11.170Z,1.02
2023-06-30T15:44:39.678Z,1.45
2023-06-30T15:47:08.376Z,1.10
2023-06-30T15:49:36.860Z,1.42
2023-06-30T15:52:05.703Z,1.45
2023-06-30T15:54:34.315Z,1.35
2023-06-30T15:57:02.856Z,1.40
2023-06-30T15:59:33.114Z,1.35
2023-06-30T16:02:01.832Z,1.63
2023-06-30T16:04:30.662Z,1.30
2023-06-30T16:06:59.413Z,1.20
2023-06-30T16:09:28.149Z,1.38
2023-06-30T16:11:56.658Z,1.30
2023-06-30T16:14:25.197Z,1.48
2023-06-30T16:16:55.189Z,1.50
2023-06-30T16:19:23.847Z,1.48
2023-06-30T16:21:52.377Z,1.40
2023-06-30T16:24:21.093Z,1.50
2023-06-30T16:26:49.580Z,1.45
2023-06-30T16:29:18.091Z,1.40
2023-06-30T16:31:46.702Z,1.40
2023-06-30T16:34:16.747Z,1.50
2023-06-30T16:36:45.388Z,1.42
2023-06-30T16:39:14.109Z,1.77
2023-06-30T16:41:42.625Z,1.45
2023-06-30T16:44:11.316Z,1.40
2023-06-30T16:46:39.895Z,1.30
2023-06-30T16:49:08.407Z,1.33
2023-06-30T16:51:39.658Z,1.50
2023-06-30T16:54:08.784Z,1.52
2023-06-30T16:56:37.295Z,1.33
2023-06-30T16:59:05.835Z,1.48
2023-06-30T17:01:34.579Z,1.40
2023-06-30T17:04:03.434Z,1.50
2023-06-30T17:06:31.946Z,1.40
2023-06-30T17:09:01.943Z,1.55
2023-06-30T17:11:31.803Z,1.48
2023-06-30T17:14:01.721Z,1.80
2023-06-30T17:16:30.392Z,1.77
2023-06-30T17:18:58.901Z,1.70
2023-06-30T17:21:27.422Z,1.70
2023-06-30T17:23:56.034Z,1.70
2023-06-30T17:26:25.926Z,1.63
2023-06-30T17:28:54.422Z,1.42
2023-06-30T17:31:22.997Z,1.50
2023-06-30T17:33:51.556Z,1.60
2023-06-30T17:36:20.091Z,1.50
2023-06-30T17:38:48.691Z,1.50
2023-06-30T17:41:17.253Z,1.50
2023-06-30T17:43:47.141Z,1.45
2023-06-30T17:46:15.888Z,1.70
2023-06-30T17:48:44.389Z,1.70
2023-06-30T17:51:13.699Z,1.70
2023-06-30T17:53:43.689Z,1.83
2023-06-30T17:56:12.245Z,1.80
2023-06-30T17:58:40.766Z,2.00
2023-06-30T18:01:10.916Z,1.48
2023-06-30T18:03:39.453Z,2.03
2023-06-30T18:06:07.983Z,1.95
2023-06-30T18:08:38.708Z,1.90
2023-06-30T18:11:09.407Z,1.70
2023-06-30T18:13:39.470Z,1.90
2023-06-30T18:16:08.050Z,2.00
2023-06-30T18:18:37.955Z,2.00
2023-06-30T18:21:06.625Z,1.83
2023-06-30T18:23:35.141Z,2.10
2023-06-30T18:26:03.654Z,2.00
2023-06-30T18:28:32.282Z,2.08
2023-06-30T18:31:00.787Z,2.15
2023-06-30T18:33:29.296Z,2.30
2023-06-30T18:35:59.300Z,2.03
2023-06-30T18:38:27.805Z,1.92
2023-06-30T18:40:56.312Z,2.15
2023-06-30T18:43:24.920Z,1.90
2023-06-30T18:45:53.439Z,2.20
2023-06-30T18:48:21.984Z,1.80
2023-06-30T18:50:50.678Z,2.30
2023-06-30T18:53:20.707Z,2.00
2023-06-30T18:55:49.412Z,2.25
2023-06-30T18:58:18.218Z,2.30
2023-06-30T19:00:46.771Z,1.98
2023-06-30T19:03:16.014Z,2.47
2023-06-30T19:05:45.387Z,2.08
2023-06-30T19:08:16.296Z,2.17
2023-06-30T19:10:46.368Z,2.20
2023-06-30T19:13:14.981Z,2.25
2023-06-30T19:15:43.620Z,2.60
2023-06-30T19:18:13.838Z,2.50
2023-06-30T19:20:42.523Z,2.63
2023-06-30T19:23:13.326Z,2.47
2023-06-30T19:25:41.838Z,2.40
2023-06-30T19:28:11.908Z,2.43
2023-06-30T19:30:40.524Z,2.20
2023-06-30T19:33:09.059Z,2.50
2023-06-30T19:35:37.654Z,2.50
2023-06-30T19:38:06.206Z,2.33
2023-06-30T19:40:34.730Z,3.00
2023-06-30T19:43:03.362Z,2.53
2023-06-30T19:45:33.415Z,2.90
2023-06-30T19:48:01.978Z,3.07
2023-06-30T19:50:30.753Z,2.77
2023-06-30T19:52:59.261Z,2.53
2023-06-30T19:55:27.761Z,2.73
2023-06-30T19:57:56.684Z,2.80
2023-06-30T20:00:25.315Z,3.03
2023-06-30T20:02:55.251Z,2.83
2023-06-30T20:05:24.000Z,2.83
2023-06-30T20:07:52.527Z,3.17
2023-06-30T20:10:21.086Z,2.90
2023-06-30T20:12:50.701Z,2.57
2023-06-30T20:15:19.214Z,3.13
2023-06-30T20:17:47.799Z,3.10
2023-06-30T20:20:18.047Z,2.80
2023-06-30T20:22:46.793Z,3.00
2023-06-30T20:25:15.731Z,3.13
2023-06-30T20:27:45.997Z,2.90
2023-06-30T20:30:15.794Z,3.10
2023-06-30T20:32:44.426Z,2.87
2023-06-30T20:35:14.811Z,3.80
2023-06-30T20:37:44.740Z,2.80
2023-06-30T20:40:13.474Z,3.10
2023-06-30T20:42:42.161Z,3.07
2023-06-30T20:45:10.974Z,2.90
2023-06-30T20:47:40.212Z,2.60
2023-06-30T20:50:10.048Z,3.07
2023-06-30T20:52:38.575Z,2.93
2023-06-30T20:55:09.000Z,3.23
2023-06-30T20:57:37.756Z,3.10
2023-06-30T21:00:06.763Z,3.10
2023-06-30T21:02:36.221Z,3.23
2023-06-30T21:05:05.035Z,3.67
2023-06-30T21:07:33.661Z,2.70
2023-06-30T21:10:02.148Z,3.27
2023-06-30T21:12:35.084Z,3.00
2023-06-30T21:15:03.613Z,2.97
2023-06-30T21:17:32.212Z,2.93
2023-06-30T21:20:00.763Z,3.00
2023-06-30T21:22:29.275Z,3.67
2023-06-30T21:24:57.993Z,2.90
2023-06-30T21:27:27.952Z,3.30
2023-06-30T21:29:57.850Z,3.10
2023-06-30T21:32:26.452Z,3.23
2023-06-30T21:34:55.018Z,3.00
2023-06-30T21:37:26.026Z,3.03
2023-06-30T21:39:54.719Z,2.93
2023-06-30T21:42:23.223Z,2.90
2023-06-30T21:44:51.737Z,3.20
2023-06-30T21:47:21.774Z,3.17
2023-06-30T21:49:50.302Z,3.47
2023-06-30T21:52:18.799Z,3.40
2023-06-30T21:54:48.955Z,3.83
2023-06-30T21:57:17.799Z,3.20
2023-06-30T21:59:46.316Z,3.90
2023-06-30T22:02:15.461Z,3.47
2023-06-30T22:04:45.828Z,3.13
2023-06-30T22:07:14.378Z,3.10
2023-06-30T22:09:42.991Z,2.97
2023-06-30T22:12:13.682Z,3.63
2023-06-30T22:14:42.196Z,2.60
2023-06-30T22:17:10.863Z,2.90
2023-06-30T22:19:39.465Z,3.20
2023-06-30T22:22:09.502Z,3.07
2023-06-30T22:24:38.020Z,2.83
2023-06-30T22:27:06.917Z,3.00
2023-06-30T22:29:35.463Z,3.47
2023-06-30T22:32:04.013Z,3.47
2023-06-30T22:34:32.750Z,2.90
2023-06-30T22:37:01.276Z,2.80
2023-06-30T22:39:31.200Z,3.97
2023-06-30T22:41:59.834Z,3.27
2023-06-30T22:44:28.371Z,3.30
2023-06-30T22:46:57.018Z,2.90
2023-06-30T22:49:25.739Z,2.87
2023-06-30T22:51:54.759Z,2.80
2023-06-30T22:54:23.249Z,3.07
2023-06-30T22:56:53.241Z,3.20
2023-06-30T22:59:21.889Z,2.97
2023-06-30T23:01:50.579Z,3.70
2023-06-30T23:04:19.426Z,3.13
2023-06-30T23:06:48.159Z,3.00
2023-06-30T23:09:16.668Z,3.40
2023-06-30T23:11:45.269Z,3.53
2023-06-30T23:14:15.228Z,3.33
2023-06-30T23:16:43.753Z,3.50
2023-06-30T23:19:12.872Z,3.13
2023-06-30T23:21:45.480Z,3.23
2023-06-30T23:24:14.576Z,3.30
2023-06-30T23:26:46.203Z,3.73
2023-06-30T23:29:16.272Z,4.20
2023-06-30T23:31:44.825Z,3.23
2023-06-30T23:34:17.720Z,3.97
2023-06-30T23:36:46.402Z,3.10
2023-06-30T23:39:14.967Z,3.40
2023-06-30T23:41:43.472Z,3.17
2023-06-30T23:44:14.203Z,3.40
2023-06-30T23:46:44.177Z,3.37
2023-06-30T23:49:12.904Z,3.53
2023-06-30T23:51:41.408Z,3.33
2023-06-30T23:54:09.912Z,3.50
2023-06-30T23:56:38.579Z,3.90
2023-06-30T23:59:07.742Z,3.13
